North Star — XPD6470 — position and weather

sailwx.info

Track history (hours):
 
Tides and Currents Weather Stations Pressure Air Temp Water Temp Dewpoint Dewpoint Depression Visibility Wind Speed Wind Dir Waves Ship Positions

North Star

Last reported at 2017-Nov-05 16:20 UTC. Time now 2017-Nov-25 09:56 UTC.
Position N 27°46' W 015°11'.
Warning: this ship's position is 19 days out of date.

Length 13 m.

Type: Sailing vessel. MMSI: 219008067.

Date/timePositionNaut miles runAvg speedWind from/ knotsBaromVisibWave heightAir tempDewpointWater temp
2017-Nov-05 16:20N 27°46' W 015°11'3 8.3
2017-Nov-05 16:00N 27°48' W 015°12'4 8.2
2017-Nov-05 15:30N 27°52' W 015°12'4 8.3
2017-Nov-05 15:00N 27°56' W 015°14'4 8.0
2017-Nov-05 14:30N 27°59' W 015°17'4 7.8
2017-Nov-05 13:59N 28°02' W 015°20'3 6.8
2017-Nov-05 13:29N 28°05' W 015°22'3 5.8
2017-Nov-05 12:59N 28°07' W 015°25'1 1.5
2017-Nov-05 12:28N 28°08' W 015°25'0 0.6
2017-Nov-05 11:49N 28°08' W 015°26'0 0.0
2017-Nov-05 11:19N 28°08' W 015°26'0 0.0
2017-Nov-05 10:49N 28°08' W 015°26'0 0.0
2017-Nov-05 10:22N 28°08' W 015°26'0 0.0
2017-Nov-05 09:49N 28°08' W 015°26'0 0.0
2017-Nov-05 09:22N 28°08' W 015°26'0 0.0
2017-Nov-05 08:52N 28°08' W 015°26'0 0.0
2017-Nov-05 08:10N 28°08' W 015°26'0 0.0
2017-Nov-05 07:55N 28°08' W 015°26'0 0.0
2017-Nov-05 07:25N 28°08' W 015°26'0 0.0
2017-Nov-05 06:55N 28°08' W 015°26'0 0.0
2017-Nov-05 06:28N 28°08' W 015°26'0 0.0
2017-Nov-05 05:58N 28°08' W 015°26'0 0.0
2017-Nov-05 05:28N 28°08' W 015°26'0 0.0
2017-Nov-05 04:58N 28°08' W 015°26'0 0.0
2017-Nov-05 04:28N 28°08' W 015°26'0 0.0
2017-Nov-05 03:58N 28°08' W 015°26'0 0.0
2017-Nov-05 03:28N 28°08' W 015°26'0 0.0
2017-Nov-05 02:58N 28°08' W 015°26'0 0.0
2017-Nov-05 02:28N 28°08' W 015°26'0 0.0
2017-Nov-05 01:58N 28°08' W 015°26'0 0.0
2017-Nov-05 01:28N 28°08' W 015°26'0 0.0
2017-Nov-05 00:58N 28°08' W 015°26'0 0.0
2017-Nov-05 00:28N 28°08' W 015°26'0 0.0
2017-Nov-04 23:58N 28°08' W 015°26'0 0.0
2017-Nov-04 23:19N 28°08' W 015°26'0 0.0
2017-Nov-04 22:46N 28°08' W 015°26'0 0.0
2017-Nov-04 22:22N 28°08' W 015°26'0 0.0
2017-Nov-04 21:52N 28°08' W 015°26'0 0.0
2017-Nov-04 21:22N 28°08' W 015°26'0 0.0
2017-Nov-04 20:52N 28°08' W 015°26'0 0.0
2017-Nov-04 20:22N 28°08' W 015°26'0 0.0
2017-Nov-04 19:52N 28°08' W 015°26'0 0.0
2017-Nov-04 19:19N 28°08' W 015°26'0 0.0
2017-Nov-04 18:55N 28°08' W 015°26'0 0.0
2017-Nov-04 18:25N 28°08' W 015°26'0 0.0
2017-Nov-04 17:55N 28°08' W 015°26'0 0.0
2017-Nov-04 17:25N 28°08' W 015°26'0 0.0
2017-Nov-04 16:55N 28°08' W 015°26'0 0.0
2017-Nov-04 16:28N 28°08' W 015°26'0 0.0
2017-Nov-04 15:58N 28°08' W 015°26'0 0.0
2017-Nov-04 15:28N 28°08' W 015°26'0 0.0
2017-Nov-04 14:55N 28°08' W 015°26'0 0.0
2017-Nov-04 14:28N 28°08' W 015°26'0 0.0
2017-Nov-04 13:58N 28°08' W 015°26'0 0.0
2017-Nov-04 13:28N 28°08' W 015°26'0 0.0
2017-Nov-04 12:58N 28°08' W 015°26'0 0.0
2017-Nov-04 12:28N 28°08' W 015°26'0 0.0
2017-Nov-04 11:58N 28°08' W 015°26'0 0.3
2017-Nov-04 11:29N 28°08' W 015°25'1 2.5
2017-Nov-04 10:58N 28°07' W 015°24'0 0.3
2017-Nov-04 10:30N 28°07' W 015°24'0 0.8
2017-Nov-04 10:00N 28°07' W 015°25'1 1.9
2017-Nov-04 09:27N 28°08' W 015°26'0 0.0
2017-Nov-04 08:39N 28°08' W 015°26'0 0.0
2017-Nov-04 08:27N 28°08' W 015°26'0 0.0
2017-Nov-04 07:57N 28°08' W 015°26'0 0.0
2017-Nov-04 07:30N 28°08' W 015°26'0 0.0
2017-Nov-04 06:57N 28°08' W 015°26'0 0.0
2017-Nov-04 06:30N 28°08' W 015°26'0 0.0
2017-Nov-04 06:00N 28°08' W 015°26'0 0.0
2017-Nov-04 05:30N 28°08' W 015°26'0 0.0
2017-Nov-04 04:57N 28°08' W 015°26'0 0.0
2017-Nov-04 04:30N 28°08' W 015°26'0 0.0
2017-Nov-04 04:00N 28°08' W 015°26'0 0.0
2017-Nov-04 03:15N 28°08' W 015°26'0 0.0
2017-Nov-04 02:48N 28°08' W 015°26'0 0.0
2017-Nov-04 02:30N 28°08' W 015°26'0 0.0
2017-Nov-04 02:00N 28°08' W 015°26'0 0.0
2017-Nov-04 01:30N 28°08' W 015°26'0 0.0
2017-Nov-04 01:00N 28°08' W 015°26'0 0.0
2017-Nov-04 00:21N 28°08' W 015°26'0 0.0
2017-Nov-03 23:51N 28°08' W 015°26'0 0.0
2017-Nov-03 23:21N 28°08' W 015°26'0 0.0
2017-Nov-03 22:51N 28°08' W 015°26'0 0.0
2017-Nov-03 22:21N 28°08' W 015°26'0 0.0
2017-Nov-03 21:54N 28°08' W 015°26'0 0.0
2017-Nov-03 21:24N 28°08' W 015°26'0 0.0
2017-Nov-03 20:51N 28°08' W 015°26'0 0.0
2017-Nov-03 20:27N 28°08' W 015°26'0 0.0
2017-Nov-03 19:57N 28°08' W 015°26'0 0.0
2017-Nov-03 19:27N 28°08' W 015°26'0 0.0
2017-Nov-03 18:57N 28°08' W 015°26'0 0.0
2017-Nov-03 18:24N 28°08' W 015°26'0 0.0
2017-Nov-03 18:00N 28°08' W 015°26'0 0.0
2017-Nov-03 17:30N 28°08' W 015°26'0 0.0
2017-Nov-03 17:00N 28°08' W 015°26'0 0.0
2017-Nov-03 16:30N 28°08' W 015°26'0 0.0
2017-Nov-03 16:00N 28°08' W 015°26'0 0.0
2017-Nov-03 15:30N 28°08' W 015°26'0 0.0
2017-Nov-03 15:00N 28°08' W 015°26'0 0.0
2017-Nov-03 14:30N 28°08' W 015°26'0 0.0
2017-Nov-03 14:00N 28°08' W 015°26'0 0.0
2017-Nov-03 13:30N 28°08' W 015°26'0 0.0
2017-Nov-03 13:00N 28°08' W 015°26'0 0.0
2017-Nov-03 12:30N 28°08' W 015°26'0 0.0
2017-Nov-03 11:51N 28°08' W 015°26'0 0.0
2017-Nov-03 11:21N 28°08' W 015°26'0 0.0
2017-Nov-03 11:00N 28°08' W 015°26'0 0.0
2017-Nov-03 10:21N 28°08' W 015°26'0 0.0
2017-Nov-03 09:51N 28°08' W 015°26'0 0.0
2017-Nov-03 09:24N 28°08' W 015°26'0 0.0
2017-Nov-03 08:54N 28°08' W 015°26'0 0.0
2017-Nov-03 08:24N 28°08' W 015°26'0 0.0
2017-Nov-03 07:54N 28°08' W 015°26'0 0.0
2017-Nov-03 07:24N 28°08' W 015°26'0 0.0
2017-Nov-03 06:54N 28°08' W 015°26'0 0.0
2017-Nov-03 06:27N 28°08' W 015°26'0 0.0
2017-Nov-03 05:57N 28°08' W 015°26'0 0.0
2017-Nov-03 05:27N 28°08' W 015°26'0 0.0
2017-Nov-03 04:57N 28°08' W 015°26'0 0.0
2017-Nov-03 04:27N 28°08' W 015°26'0 0.0
2017-Nov-03 03:57N 28°08' W 015°26'0 0.0
2017-Nov-03 03:30N 28°08' W 015°26'0 0.0
2017-Nov-03 03:00N 28°08' W 015°26'0 0.0
2017-Nov-03 02:30N 28°08' W 015°26'0 0.0
2017-Nov-03 02:00N 28°08' W 015°26'0 0.0
2017-Nov-03 01:30N 28°08' W 015°26'0 0.0
2017-Nov-03 01:00N 28°08' W 015°26'0 0.0
2017-Nov-03 00:30N 28°08' W 015°26'0 0.0
2017-Nov-03 00:00N 28°08' W 015°26'0 0.0
2017-Nov-02 23:30N 28°08' W 015°26'0 0.0
2017-Nov-02 23:00N 28°08' W 015°26'0 0.0
2017-Nov-02 22:30N 28°08' W 015°26'0 0.0
2017-Nov-02 22:00N 28°08' W 015°26'0 0.0
2017-Nov-02 21:30N 28°08' W 015°26'0 0.0
2017-Nov-02 20:51N 28°08' W 015°26'0 0.0
2017-Nov-02 20:18N 28°08' W 015°26'0 0.0
2017-Nov-02 19:54N 28°08' W 015°26'0 0.0
2017-Nov-02 19:21N 28°08' W 015°26'0 0.0
2017-Nov-02 18:54N 28°08' W 015°26'0 0.0
2017-Nov-02 18:24N 28°08' W 015°26'0 0.0
2017-Nov-02 17:54N 28°08' W 015°26'0 0.0
2017-Nov-02 16:54N 28°08' W 015°26'0 0.0
2017-Nov-02 16:27N 28°08' W 015°26'0 0.0
2017-Nov-02 15:57N 28°08' W 015°26'0 0.0
2017-Nov-02 15:27N 28°08' W 015°26'0 0.0
2017-Nov-02 14:57N 28°08' W 015°26'0 0.0
2017-Nov-02 14:27N 28°08' W 015°26'0 0.0
2017-Nov-02 14:00N 28°08' W 015°26'0 0.0
2017-Nov-02 13:30N 28°08' W 015°26'0 0.0
2017-Nov-02 13:00N 28°08' W 015°26'0 0.0
2017-Nov-02 12:30N 28°08' W 015°26'0 0.0
2017-Nov-02 12:00N 28°08' W 015°26'0 0.0
2017-Nov-02 11:30N 28°08' W 015°26'0 0.0
2017-Nov-02 11:00N 28°08' W 015°26'0 0.0
2017-Nov-02 10:30N 28°08' W 015°26'0 0.0
2017-Nov-02 10:00N 28°08' W 015°26'0 0.0
2017-Nov-02 09:30N 28°08' W 015°26'0 0.0
2017-Nov-02 09:00N 28°08' W 015°26'0 0.0
2017-Nov-02 08:30N 28°08' W 015°26'0 0.0
2017-Nov-02 08:00N 28°08' W 015°26'0 0.0
2017-Nov-02 07:30N 28°08' W 015°26'0 0.0
2017-Nov-02 07:00N 28°08' W 015°26'0 0.0
2017-Nov-02 06:21N 28°08' W 015°26'0 0.0
2017-Nov-02 05:36N 28°08' W 015°26'0 0.0
2017-Nov-02 05:21N 28°08' W 015°26'0 0.0
2017-Nov-02 04:54N 28°08' W 015°26'0 0.0
2017-Nov-02 04:24N 28°08' W 015°26'0 0.0
2017-Nov-02 03:54N 28°08' W 015°26'0 0.0
2017-Nov-02 03:24N 28°08' W 015°26'0 0.0
2017-Nov-02 02:54N 28°08' W 015°26'0 0.0
2017-Nov-02 02:27N 28°08' W 015°26'0 0.0
2017-Nov-02 01:57N 28°08' W 015°26'0 0.0
2017-Nov-02 01:27N 28°08' W 015°26'0 0.0
2017-Nov-02 00:57N 28°08' W 015°26'0 0.0
2017-Nov-02 00:27N 28°08' W 015°26'0 0.0
2017-Nov-02 00:00N 28°08' W 015°26'0 0.0
2017-Nov-01 23:30N 28°08' W 015°26'0 0.0
2017-Nov-01 23:00N 28°08' W 015°26'0 0.0
2017-Nov-01 22:30N 28°08' W 015°26'0 0.0
2017-Nov-01 22:00N 28°08' W 015°26'0 0.0
2017-Nov-01 21:30N 28°08' W 015°26'0 0.0
2017-Nov-01 20:48N 28°08' W 015°26'0 0.0
2017-Nov-01 20:30N 28°08' W 015°26'0 0.0
2017-Nov-01 20:00N 28°08' W 015°26'0 0.0
2017-Nov-01 19:30N 28°08' W 015°26'0 0.0
2017-Nov-01 19:00N 28°08' W 015°26'0 0.0
2017-Nov-01 18:28N 28°08' W 015°26'0 0.0
2017-Nov-01 01:37N 28°08' W 015°26'0 0.0
2017-Nov-01 01:22N 28°08' W 015°26'0 0.0
2017-Nov-01 00:52N 28°08' W 015°26'0 0.0
2017-Nov-01 00:22N 28°08' W 015°26'0 0.0
2017-Oct-31 23:52N 28°08' W 015°26'0 0.0
2017-Oct-31 23:25N 28°08' W 015°26'0 0.0
2017-Oct-31 22:55N 28°08' W 015°26'0 0.0
2017-Oct-31 22:25N 28°08' W 015°26'0 0.0
2017-Oct-31 21:52N 28°08' W 015°26'0 0.0
2017-Oct-31 21:25N 28°08' W 015°26'0 0.0
2017-Oct-31 20:58N 28°08' W 015°26'0 0.0
2017-Oct-31 20:28N 28°08' W 015°26'0 0.0
2017-Oct-31 19:58N 28°08' W 015°26'0 0.0
2017-Oct-31 19:28N 28°08' W 015°26'0 0.0
2017-Oct-31 18:58N 28°08' W 015°26'0 0.0
2017-Oct-31 18:28N 28°08' W 015°26'0 0.0
2017-Oct-31 17:58N 28°08' W 015°26'0 0.0
2017-Oct-31 17:28N 28°08' W 015°26'0 0.0
2017-Oct-31 16:58N 28°08' W 015°26'0 0.0
2017-Oct-31 16:28N 28°08' W 015°26'0 0.0
2017-Oct-31 15:58N 28°08' W 015°26'0 0.0
2017-Oct-31 15:28N 28°08' W 015°26'0 0.0
2017-Oct-31 14:58N 28°08' W 015°26'0 0.0
2017-Oct-31 14:28N 28°08' W 015°26'0 0.0
2017-Oct-31 13:58N 28°08' W 015°26'0 0.0
2017-Oct-31 13:19N 28°08' W 015°26'0 0.0
2017-Oct-31 12:49N 28°08' W 015°26'0 0.0
2017-Oct-31 12:22N 28°08' W 015°26'0 0.0
2017-Oct-31 11:52N 28°08' W 015°26'0 0.0
2017-Oct-31 11:22N 28°08' W 015°26'0 0.0
2017-Oct-31 10:52N 28°08' W 015°26'0 0.0
2017-Oct-31 10:22N 28°08' W 015°26'0 0.0
2017-Oct-31 09:52N 28°08' W 015°26'0 0.0
2017-Oct-31 09:22N 28°08' W 015°26'0 0.0
2017-Oct-31 08:55N 28°08' W 015°26'0 0.0
2017-Oct-31 08:25N 28°08' W 015°26'0 0.0
2017-Oct-31 07:55N 28°08' W 015°26'0 0.0
2017-Oct-31 07:25N 28°08' W 015°26'0 0.0
2017-Oct-31 06:58N 28°08' W 015°26'0 0.0
2017-Oct-31 06:28N 28°08' W 015°26'0 0.0
2017-Oct-31 05:58N 28°08' W 015°26'0 0.0
2017-Oct-31 05:28N 28°08' W 015°26'0 0.0
2017-Oct-31 04:58N 28°08' W 015°26'0 0.0
2017-Oct-31 04:28N 28°08' W 015°26'0 0.0
2017-Oct-31 03:58N 28°08' W 015°26'0 0.0
2017-Oct-31 03:28N 28°08' W 015°26'0 0.0
2017-Oct-31 02:58N 28°08' W 015°26'0 0.0
2017-Oct-31 02:28N 28°08' W 015°26'0 0.0
2017-Oct-31 01:58N 28°08' W 015°26'0 0.0
2017-Oct-31 01:28N 28°08' W 015°26'0 0.0
2017-Oct-31 00:58N 28°08' W 015°26'0 0.0
2017-Oct-31 00:28N 28°08' W 015°26'0 0.0
2017-Oct-30 23:58N 28°08' W 015°26'0 0.0
2017-Oct-30 23:19N 28°08' W 015°26'0 0.0
2017-Oct-30 22:49N 28°08' W 015°26'0 0.0
2017-Oct-30 22:22N 28°08' W 015°26'0 0.0
2017-Oct-30 21:52N 28°08' W 015°26'0 0.0
2017-Oct-30 21:22N 28°08' W 015°26'0 0.0
2017-Oct-30 20:52N 28°08' W 015°26'0 0.0
2017-Oct-30 20:22N 28°08' W 015°26'0 0.0
2017-Oct-30 19:52N 28°08' W 015°26'0 0.0
2017-Oct-30 19:22N 28°08' W 015°26'0 0.0
2017-Oct-30 18:52N 28°08' W 015°26'0 0.0
2017-Oct-30 18:25N 28°08' W 015°26'0 0.0
2017-Oct-30 17:55N 28°08' W 015°26'0 0.0
2017-Oct-30 17:22N 28°08' W 015°26'0 0.0
2017-Oct-30 16:58N 28°08' W 015°26'0 0.0
2017-Oct-30 16:28N 28°08' W 015°26'0 0.0
2017-Oct-30 15:58N 28°08' W 015°26'0 0.0
2017-Oct-30 15:25N 28°08' W 015°26'0 0.0
2017-Oct-30 14:58N 28°08' W 015°26'0 0.0
2017-Oct-30 13:58N 28°08' W 015°26'0 0.0
2017-Oct-30 13:16N 28°08' W 015°26'0 0.0
2017-Oct-30 12:46N 28°08' W 015°26'0 0.0
2017-Oct-30 12:28N 28°08' W 015°26'0 0.0
2017-Oct-30 10:53N 28°08' W 015°26'0 0.0
2017-Oct-30 10:20N 28°08' W 015°26'0 0.0
2017-Oct-30 09:53N 28°08' W 015°26'0 0.0
2017-Oct-30 09:23N 28°08' W 015°26'0 0.0
2017-Oct-30 08:53N 28°08' W 015°26'0 0.0
2017-Oct-30 08:26N 28°08' W 015°26'0 0.0
2017-Oct-30 07:53N 28°08' W 015°26'0 0.0
2017-Oct-30 07:26N 28°08' W 015°26'0 0.0
2017-Oct-30 06:56N 28°08' W 015°26'0 0.0
2017-Oct-30 06:26N 28°08' W 015°26'0 0.0
2017-Oct-30 05:59N 28°08' W 015°26'0 0.0
2017-Oct-30 05:29N 28°08' W 015°26'0 0.0
2017-Oct-30 03:41N 28°08' W 015°26'0 0.0
2017-Oct-30 03:29N 28°08' W 015°26'0 0.0
2017-Oct-30 02:59N 28°08' W 015°26'0 0.0
2017-Oct-30 02:29N 28°08' W 015°26'0 0.0
2017-Oct-30 01:47N 28°08' W 015°26'0 0.0
2017-Oct-30 01:29N 28°08' W 015°26'0 0.0
2017-Oct-30 00:59N 28°08' W 015°26'0 0.0
2017-Oct-30 00:29N 28°08' W 015°26'0 0.0
2017-Oct-29 23:59N 28°08' W 015°26'0 0.0
2017-Oct-29 23:17N 28°08' W 015°26'0 0.0
2017-Oct-29 22:47N 28°08' W 015°26'0 0.0
2017-Oct-29 22:20N 28°08' W 015°26'0 0.0
2017-Oct-29 21:53N 28°08' W 015°26'0 0.0
2017-Oct-29 21:23N 28°08' W 015°26'0 0.0
2017-Oct-29 20:53N 28°08' W 015°26'0 0.0
2017-Oct-29 20:23N 28°08' W 015°26'0 0.0
2017-Oct-29 19:50N 28°08' W 015°26'0 0.0
2017-Oct-29 19:08N 28°08' W 015°26'0 0.0
2017-Oct-29 18:41N 28°08' W 015°26'0 0.0
2017-Oct-29 18:11N 28°08' W 015°26'0 0.0
2017-Oct-29 17:41N 28°08' W 015°26'0 0.0
2017-Oct-29 17:23N 28°08' W 015°26'0 0.0
2017-Oct-29 16:53N 28°08' W 015°26'0 0.0
2017-Oct-29 16:11N 28°08' W 015°26'0 0.0
2017-Oct-29 15:59N 28°08' W 015°26'0 0.0
2017-Oct-29 15:29N 28°08' W 015°26'0 0.0
2017-Oct-29 14:59N 28°08' W 015°26'0 0.0
2017-Oct-29 14:23N 28°08' W 015°26'0 0.4
2017-Oct-29 13:59N 28°08' W 015°25'0 0.2
2017-Oct-29 13:29N 28°08' W 015°26'  
Track history (hours):
 
Tides and Currents Weather Stations Pressure Air Temp Water Temp Dewpoint Dewpoint Depression Visibility Wind Speed Wind Dir Waves Ship Positions

North Star

Last reported at 2017-Nov-05 16:20 UTC. Time now 2017-Nov-25 09:56 UTC.
Position N 27°46' W 015°11'.
Warning: this ship's position is 19 days out of date.

Length 13 m.

Type: Sailing vessel. MMSI: 219008067.

Date/timePositionNaut miles runAvg speedWind from/ knotsBaromVisibWave heightAir tempDewpointWater temp
2017-Nov-05 16:20N 27°46' W 015°11'3 8.3
2017-Nov-05 16:00N 27°48' W 015°12'4 8.2
2017-Nov-05 15:30N 27°52' W 015°12'4 8.3
2017-Nov-05 15:00N 27°56' W 015°14'4 8.0
2017-Nov-05 14:30N 27°59' W 015°17'4 7.8
2017-Nov-05 13:59N 28°02' W 015°20'3 6.8
2017-Nov-05 13:29N 28°05' W 015°22'3 5.8
2017-Nov-05 12:59N 28°07' W 015°25'1 1.5
2017-Nov-05 12:28N 28°08' W 015°25'0 0.6
2017-Nov-05 11:49N 28°08' W 015°26'0 0.0
2017-Nov-05 11:19N 28°08' W 015°26'0 0.0
2017-Nov-05 10:49N 28°08' W 015°26'0 0.0
2017-Nov-05 10:22N 28°08' W 015°26'0 0.0
2017-Nov-05 09:49N 28°08' W 015°26'0 0.0
2017-Nov-05 09:22N 28°08' W 015°26'0 0.0
2017-Nov-05 08:52N 28°08' W 015°26'0 0.0
2017-Nov-05 08:10N 28°08' W 015°26'0 0.0
2017-Nov-05 07:55N 28°08' W 015°26'0 0.0
2017-Nov-05 07:25N 28°08' W 015°26'0 0.0
2017-Nov-05 06:55N 28°08' W 015°26'0 0.0
2017-Nov-05 06:28N 28°08' W 015°26'0 0.0
2017-Nov-05 05:58N 28°08' W 015°26'0 0.0
2017-Nov-05 05:28N 28°08' W 015°26'0 0.0
2017-Nov-05 04:58N 28°08' W 015°26'0 0.0
2017-Nov-05 04:28N 28°08' W 015°26'0 0.0
2017-Nov-05 03:58N 28°08' W 015°26'0 0.0
2017-Nov-05 03:28N 28°08' W 015°26'0 0.0
2017-Nov-05 02:58N 28°08' W 015°26'0 0.0
2017-Nov-05 02:28N 28°08' W 015°26'0 0.0
2017-Nov-05 01:58N 28°08' W 015°26'0 0.0
2017-Nov-05 01:28N 28°08' W 015°26'0 0.0
2017-Nov-05 00:58N 28°08' W 015°26'0 0.0
2017-Nov-05 00:28N 28°08' W 015°26'0 0.0
2017-Nov-04 23:58N 28°08' W 015°26'0 0.0
2017-Nov-04 23:19N 28°08' W 015°26'0 0.0
2017-Nov-04 22:46N 28°08' W 015°26'0 0.0
2017-Nov-04 22:22N 28°08' W 015°26'0 0.0
2017-Nov-04 21:52N 28°08' W 015°26'0 0.0
2017-Nov-04 21:22N 28°08' W 015°26'0 0.0
2017-Nov-04 20:52N 28°08' W 015°26'0 0.0
2017-Nov-04 20:22N 28°08' W 015°26'0 0.0
2017-Nov-04 19:52N 28°08' W 015°26'0 0.0
2017-Nov-04 19:19N 28°08' W 015°26'0 0.0
2017-Nov-04 18:55N 28°08' W 015°26'0 0.0
2017-Nov-04 18:25N 28°08' W 015°26'0 0.0
2017-Nov-04 17:55N 28°08' W 015°26'0 0.0
2017-Nov-04 17:25N 28°08' W 015°26'0 0.0
2017-Nov-04 16:55N 28°08' W 015°26'0 0.0
2017-Nov-04 16:28N 28°08' W 015°26'0 0.0
2017-Nov-04 15:58N 28°08' W 015°26'0 0.0
2017-Nov-04 15:28N 28°08' W 015°26'0 0.0
2017-Nov-04 14:55N 28°08' W 015°26'0 0.0
2017-Nov-04 14:28N 28°08' W 015°26'0 0.0
2017-Nov-04 13:58N 28°08' W 015°26'0 0.0
2017-Nov-04 13:28N 28°08' W 015°26'0 0.0
2017-Nov-04 12:58N 28°08' W 015°26'0 0.0
2017-Nov-04 12:28N 28°08' W 015°26'0 0.0
2017-Nov-04 11:58N 28°08' W 015°26'0 0.3
2017-Nov-04 11:29N 28°08' W 015°25'1 2.5
2017-Nov-04 10:58N 28°07' W 015°24'0 0.3
2017-Nov-04 10:30N 28°07' W 015°24'0 0.8
2017-Nov-04 10:00N 28°07' W 015°25'1 1.9
2017-Nov-04 09:27N 28°08' W 015°26'0 0.0
2017-Nov-04 08:39N 28°08' W 015°26'0 0.0
2017-Nov-04 08:27N 28°08' W 015°26'0 0.0
2017-Nov-04 07:57N 28°08' W 015°26'0 0.0
2017-Nov-04 07:30N 28°08' W 015°26'0 0.0
2017-Nov-04 06:57N 28°08' W 015°26'0 0.0
2017-Nov-04 06:30N 28°08' W 015°26'0 0.0
2017-Nov-04 06:00N 28°08' W 015°26'0 0.0
2017-Nov-04 05:30N 28°08' W 015°26'0 0.0
2017-Nov-04 04:57N 28°08' W 015°26'0 0.0
2017-Nov-04 04:30N 28°08' W 015°26'0 0.0
2017-Nov-04 04:00N 28°08' W 015°26'0 0.0
2017-Nov-04 03:15N 28°08' W 015°26'0 0.0
2017-Nov-04 02:48N 28°08' W 015°26'0 0.0
2017-Nov-04 02:30N 28°08' W 015°26'0 0.0
2017-Nov-04 02:00N 28°08' W 015°26'0 0.0
2017-Nov-04 01:30N 28°08' W 015°26'0 0.0
2017-Nov-04 01:00N 28°08' W 015°26'0 0.0
2017-Nov-04 00:21N 28°08' W 015°26'0 0.0
2017-Nov-03 23:51N 28°08' W 015°26'0 0.0
2017-Nov-03 23:21N 28°08' W 015°26'0 0.0
2017-Nov-03 22:51N 28°08' W 015°26'0 0.0
2017-Nov-03 22:21N 28°08' W 015°26'0 0.0
2017-Nov-03 21:54N 28°08' W 015°26'0 0.0
2017-Nov-03 21:24N 28°08' W 015°26'0 0.0
2017-Nov-03 20:51N 28°08' W 015°26'0 0.0
2017-Nov-03 20:27N 28°08' W 015°26'0 0.0
2017-Nov-03 19:57N 28°08' W 015°26'0 0.0
2017-Nov-03 19:27N 28°08' W 015°26'0 0.0
2017-Nov-03 18:57N 28°08' W 015°26'0 0.0
2017-Nov-03 18:24N 28°08' W 015°26'0 0.0
2017-Nov-03 18:00N 28°08' W 015°26'0 0.0
2017-Nov-03 17:30N 28°08' W 015°26'0 0.0
2017-Nov-03 17:00N 28°08' W 015°26'0 0.0
2017-Nov-03 16:30N 28°08' W 015°26'0 0.0
2017-Nov-03 16:00N 28°08' W 015°26'0 0.0
2017-Nov-03 15:30N 28°08' W 015°26'0 0.0
2017-Nov-03 15:00N 28°08' W 015°26'0 0.0
2017-Nov-03 14:30N 28°08' W 015°26'0 0.0
2017-Nov-03 14:00N 28°08' W 015°26'0 0.0
2017-Nov-03 13:30N 28°08' W 015°26'0 0.0
2017-Nov-03 13:00N 28°08' W 015°26'0 0.0
2017-Nov-03 12:30N 28°08' W 015°26'0 0.0
2017-Nov-03 11:51N 28°08' W 015°26'0 0.0
2017-Nov-03 11:21N 28°08' W 015°26'0 0.0
2017-Nov-03 11:00N 28°08' W 015°26'0 0.0
2017-Nov-03 10:21N 28°08' W 015°26'0 0.0
2017-Nov-03 09:51N 28°08' W 015°26'0 0.0
2017-Nov-03 09:24N 28°08' W 015°26'0 0.0
2017-Nov-03 08:54N 28°08' W 015°26'0 0.0
2017-Nov-03 08:24N 28°08' W 015°26'0 0.0
2017-Nov-03 07:54N 28°08' W 015°26'0 0.0
2017-Nov-03 07:24N 28°08' W 015°26'0 0.0
2017-Nov-03 06:54N 28°08' W 015°26'0 0.0
2017-Nov-03 06:27N 28°08' W 015°26'0 0.0
2017-Nov-03 05:57N 28°08' W 015°26'0 0.0
2017-Nov-03 05:27N 28°08' W 015°26'0 0.0
2017-Nov-03 04:57N 28°08' W 015°26'0 0.0
2017-Nov-03 04:27N 28°08' W 015°26'0 0.0
2017-Nov-03 03:57N 28°08' W 015°26'0 0.0
2017-Nov-03 03:30N 28°08' W 015°26'0 0.0
2017-Nov-03 03:00N 28°08' W 015°26'0 0.0
2017-Nov-03 02:30N 28°08' W 015°26'0 0.0
2017-Nov-03 02:00N 28°08' W 015°26'0 0.0
2017-Nov-03 01:30N 28°08' W 015°26'0 0.0
2017-Nov-03 01:00N 28°08' W 015°26'0 0.0
2017-Nov-03 00:30N 28°08' W 015°26'0 0.0
2017-Nov-03 00:00N 28°08' W 015°26'0 0.0
2017-Nov-02 23:30N 28°08' W 015°26'0 0.0
2017-Nov-02 23:00N 28°08' W 015°26'0 0.0
2017-Nov-02 22:30N 28°08' W 015°26'0 0.0
2017-Nov-02 22:00N 28°08' W 015°26'0 0.0
2017-Nov-02 21:30N 28°08' W 015°26'0 0.0
2017-Nov-02 20:51N 28°08' W 015°26'0 0.0
2017-Nov-02 20:18N 28°08' W 015°26'0 0.0
2017-Nov-02 19:54N 28°08' W 015°26'0 0.0
2017-Nov-02 19:21N 28°08' W 015°26'0 0.0
2017-Nov-02 18:54N 28°08' W 015°26'0 0.0
2017-Nov-02 18:24N 28°08' W 015°26'0 0.0
2017-Nov-02 17:54N 28°08' W 015°26'0 0.0
2017-Nov-02 16:54N 28°08' W 015°26'0 0.0
2017-Nov-02 16:27N 28°08' W 015°26'0 0.0
2017-Nov-02 15:57N 28°08' W 015°26'0 0.0
2017-Nov-02 15:27N 28°08' W 015°26'0 0.0
2017-Nov-02 14:57N 28°08' W 015°26'0 0.0
2017-Nov-02 14:27N 28°08' W 015°26'0 0.0
2017-Nov-02 14:00N 28°08' W 015°26'0 0.0
2017-Nov-02 13:30N 28°08' W 015°26'0 0.0
2017-Nov-02 13:00N 28°08' W 015°26'0 0.0
2017-Nov-02 12:30N 28°08' W 015°26'0 0.0
2017-Nov-02 12:00N 28°08' W 015°26'0 0.0
2017-Nov-02 11:30N 28°08' W 015°26'0 0.0
2017-Nov-02 11:00N 28°08' W 015°26'0 0.0
2017-Nov-02 10:30N 28°08' W 015°26'0 0.0
2017-Nov-02 10:00N 28°08' W 015°26'0 0.0
2017-Nov-02 09:30N 28°08' W 015°26'0 0.0
2017-Nov-02 09:00N 28°08' W 015°26'0 0.0
2017-Nov-02 08:30N 28°08' W 015°26'0 0.0
2017-Nov-02 08:00N 28°08' W 015°26'0 0.0
2017-Nov-02 07:30N 28°08' W 015°26'0 0.0
2017-Nov-02 07:00N 28°08' W 015°26'0 0.0
2017-Nov-02 06:21N 28°08' W 015°26'0 0.0
2017-Nov-02 05:36N 28°08' W 015°26'0 0.0
2017-Nov-02 05:21N 28°08' W 015°26'0 0.0
2017-Nov-02 04:54N 28°08' W 015°26'0 0.0
2017-Nov-02 04:24N 28°08' W 015°26'0 0.0
2017-Nov-02 03:54N 28°08' W 015°26'0 0.0
2017-Nov-02 03:24N 28°08' W 015°26'0 0.0
2017-Nov-02 02:54N 28°08' W 015°26'0 0.0
2017-Nov-02 02:27N 28°08' W 015°26'0 0.0
2017-Nov-02 01:57N 28°08' W 015°26'0 0.0
2017-Nov-02 01:27N 28°08' W 015°26'0 0.0
2017-Nov-02 00:57N 28°08' W 015°26'0 0.0
2017-Nov-02 00:27N 28°08' W 015°26'0 0.0
2017-Nov-02 00:00N 28°08' W 015°26'0 0.0
2017-Nov-01 23:30N 28°08' W 015°26'0 0.0
2017-Nov-01 23:00N 28°08' W 015°26'0 0.0
2017-Nov-01 22:30N 28°08' W 015°26'0 0.0
2017-Nov-01 22:00N 28°08' W 015°26'0 0.0
2017-Nov-01 21:30N 28°08' W 015°26'0 0.0
2017-Nov-01 20:48N 28°08' W 015°26'0 0.0
2017-Nov-01 20:30N 28°08' W 015°26'0 0.0
2017-Nov-01 20:00N 28°08' W 015°26'0 0.0
2017-Nov-01 19:30N 28°08' W 015°26'0 0.0
2017-Nov-01 19:00N 28°08' W 015°26'0 0.0
2017-Nov-01 18:28N 28°08' W 015°26'0 0.0
2017-Nov-01 01:37N 28°08' W 015°26'0 0.0
2017-Nov-01 01:22N 28°08' W 015°26'0 0.0
2017-Nov-01 00:52N 28°08' W 015°26'0 0.0
2017-Nov-01 00:22N 28°08' W 015°26'0 0.0
2017-Oct-31 23:52N 28°08' W 015°26'0 0.0
2017-Oct-31 23:25N 28°08' W 015°26'0 0.0
2017-Oct-31 22:55N 28°08' W 015°26'0 0.0
2017-Oct-31 22:25N 28°08' W 015°26'0 0.0
2017-Oct-31 21:52N 28°08' W 015°26'0 0.0
2017-Oct-31 21:25N 28°08' W 015°26'0 0.0
2017-Oct-31 20:58N 28°08' W 015°26'0 0.0
2017-Oct-31 20:28N 28°08' W 015°26'0 0.0
2017-Oct-31 19:58N 28°08' W 015°26'0 0.0
2017-Oct-31 19:28N 28°08' W 015°26'0 0.0
2017-Oct-31 18:58N 28°08' W 015°26'0 0.0
2017-Oct-31 18:28N 28°08' W 015°26'0 0.0
2017-Oct-31 17:58N 28°08' W 015°26'0 0.0
2017-Oct-31 17:28N 28°08' W 015°26'0 0.0
2017-Oct-31 16:58N 28°08' W 015°26'0 0.0
2017-Oct-31 16:28N 28°08' W 015°26'0 0.0
2017-Oct-31 15:58N 28°08' W 015°26'0 0.0
2017-Oct-31 15:28N 28°08' W 015°26'0 0.0
2017-Oct-31 14:58N 28°08' W 015°26'0 0.0
2017-Oct-31 14:28N 28°08' W 015°26'0 0.0
2017-Oct-31 13:58N 28°08' W 015°26'0 0.0
2017-Oct-31 13:19N 28°08' W 015°26'0 0.0
2017-Oct-31 12:49N 28°08' W 015°26'0 0.0
2017-Oct-31 12:22N 28°08' W 015°26'0 0.0
2017-Oct-31 11:52N 28°08' W 015°26'0 0.0
2017-Oct-31 11:22N 28°08' W 015°26'0 0.0
2017-Oct-31 10:52N 28°08' W 015°26'0 0.0
2017-Oct-31 10:22N 28°08' W 015°26'0 0.0
2017-Oct-31 09:52N 28°08' W 015°26'0 0.0
2017-Oct-31 09:22N 28°08' W 015°26'0 0.0
2017-Oct-31 08:55N 28°08' W 015°26'0 0.0
2017-Oct-31 08:25N 28°08' W 015°26'0 0.0
2017-Oct-31 07:55N 28°08' W 015°26'0 0.0
2017-Oct-31 07:25N 28°08' W 015°26'0 0.0
2017-Oct-31 06:58N 28°08' W 015°26'0 0.0
2017-Oct-31 06:28N 28°08' W 015°26'0 0.0
2017-Oct-31 05:58N 28°08' W 015°26'0 0.0
2017-Oct-31 05:28N 28°08' W 015°26'0 0.0
2017-Oct-31 04:58N 28°08' W 015°26'0 0.0
2017-Oct-31 04:28N 28°08' W 015°26'0 0.0
2017-Oct-31 03:58N 28°08' W 015°26'0 0.0
2017-Oct-31 03:28N 28°08' W 015°26'0 0.0
2017-Oct-31 02:58N 28°08' W 015°26'0 0.0
2017-Oct-31 02:28N 28°08' W 015°26'0 0.0
2017-Oct-31 01:58N 28°08' W 015°26'0 0.0
2017-Oct-31 01:28N 28°08' W 015°26'0 0.0
2017-Oct-31 00:58N 28°08' W 015°26'0 0.0
2017-Oct-31 00:28N 28°08' W 015°26'0 0.0
2017-Oct-30 23:58N 28°08' W 015°26'0 0.0
2017-Oct-30 23:19N 28°08' W 015°26'0 0.0
2017-Oct-30 22:49N 28°08' W 015°26'0 0.0
2017-Oct-30 22:22N 28°08' W 015°26'0 0.0
2017-Oct-30 21:52N 28°08' W 015°26'0 0.0
2017-Oct-30 21:22N 28°08' W 015°26'0 0.0
2017-Oct-30 20:52N 28°08' W 015°26'0 0.0
2017-Oct-30 20:22N 28°08' W 015°26'0 0.0
2017-Oct-30 19:52N 28°08' W 015°26'0 0.0
2017-Oct-30 19:22N 28°08' W 015°26'0 0.0
2017-Oct-30 18:52N 28°08' W 015°26'0 0.0
2017-Oct-30 18:25N 28°08' W 015°26'0 0.0
2017-Oct-30 17:55N 28°08' W 015°26'0 0.0
2017-Oct-30 17:22N 28°08' W 015°26'0 0.0
2017-Oct-30 16:58N 28°08' W 015°26'0 0.0
2017-Oct-30 16:28N 28°08' W 015°26'0 0.0
2017-Oct-30 15:58N 28°08' W 015°26'0 0.0
2017-Oct-30 15:25N 28°08' W 015°26'0 0.0
2017-Oct-30 14:58N 28°08' W 015°26'0 0.0
2017-Oct-30 13:58N 28°08' W 015°26'0 0.0
2017-Oct-30 13:16N 28°08' W 015°26'0 0.0
2017-Oct-30 12:46N 28°08' W 015°26'0 0.0
2017-Oct-30 12:28N 28°08' W 015°26'0 0.0
2017-Oct-30 10:53N 28°08' W 015°26'0 0.0
2017-Oct-30 10:20N 28°08' W 015°26'0 0.0
2017-Oct-30 09:53N 28°08' W 015°26'0 0.0
2017-Oct-30 09:23N 28°08' W 015°26'0 0.0
2017-Oct-30 08:53N 28°08' W 015°26'0 0.0
2017-Oct-30 08:26N 28°08' W 015°26'0 0.0
2017-Oct-30 07:53N 28°08' W 015°26'0 0.0
2017-Oct-30 07:26N 28°08' W 015°26'0 0.0
2017-Oct-30 06:56N 28°08' W 015°26'0 0.0
2017-Oct-30 06:26N 28°08' W 015°26'0 0.0
2017-Oct-30 05:59N 28°08' W 015°26'0 0.0
2017-Oct-30 05:29N 28°08' W 015°26'0 0.0
2017-Oct-30 03:41N 28°08' W 015°26'0 0.0
2017-Oct-30 03:29N 28°08' W 015°26'0 0.0
2017-Oct-30 02:59N 28°08' W 015°26'0 0.0
2017-Oct-30 02:29N 28°08' W 015°26'0 0.0
2017-Oct-30 01:47N 28°08' W 015°26'0 0.0
2017-Oct-30 01:29N 28°08' W 015°26'0 0.0
2017-Oct-30 00:59N 28°08' W 015°26'0 0.0
2017-Oct-30 00:29N 28°08' W 015°26'0 0.0
2017-Oct-29 23:59N 28°08' W 015°26'0 0.0
2017-Oct-29 23:17N 28°08' W 015°26'0 0.0
2017-Oct-29 22:47N 28°08' W 015°26'0 0.0
2017-Oct-29 22:20N 28°08' W 015°26'0 0.0
2017-Oct-29 21:53N 28°08' W 015°26'0 0.0
2017-Oct-29 21:23N 28°08' W 015°26'0 0.0
2017-Oct-29 20:53N 28°08' W 015°26'0 0.0
2017-Oct-29 20:23N 28°08' W 015°26'0 0.0
2017-Oct-29 19:50N 28°08' W 015°26'0 0.0
2017-Oct-29 19:08N 28°08' W 015°26'0 0.0
2017-Oct-29 18:41N 28°08' W 015°26'0 0.0
2017-Oct-29 18:11N 28°08' W 015°26'0 0.0
2017-Oct-29 17:41N 28°08' W 015°26'0 0.0
2017-Oct-29 17:23N 28°08' W 015°26'0 0.0
2017-Oct-29 16:53N 28°08' W 015°26'0 0.0
2017-Oct-29 16:11N 28°08' W 015°26'0 0.0
2017-Oct-29 15:59N 28°08' W 015°26'0 0.0
2017-Oct-29 15:29N 28°08' W 015°26'0 0.0
2017-Oct-29 14:59N 28°08' W 015°26'0 0.0
2017-Oct-29 14:23N 28°08' W 015°26'0 0.4
2017-Oct-29 13:59N 28°08' W 015°25'0 0.2
2017-Oct-29 13:29N 28°08' W 015°26'  

Dump ship's entire track history